sensor_id;sensor_type;location;lat;lon;timestamp;P1;durP1;ratioP1;P2;durP2;ratioP2
15843;SDS011;50807;52.436;13.346;2023-07-13T00:00:24;1.37;;;1.17;;
15843;SDS011;50807;52.436;13.346;2023-07-13T00:00:55;1.33;;;0.90;;
15843;SDS011;50807;52.436;13.346;2023-07-13T00:01:27;1.07;;;0.97;;
15843;SDS011;50807;52.436;13.346;2023-07-13T00:01:58;1.50;;;1.20;;
15843;SDS011;50807;52.436;13.346;2023-07-13T00:02:29;1.43;;;0.90;;
15843;SDS011;50807;52.436;13.346;2023-07-13T00:03:00;1.60;;;1.20;;
15843;SDS011;50807;52.436;13.346;2023-07-13T00:03:32;1.30;;;1.10;;
15843;SDS011;50807;52.436;13.346;2023-07-13T00:04:05;1.70;;;1.30;;
15843;SDS011;50807;52.436;13.346;2023-07-13T00:04:36;1.83;;;1.03;;
15843;SDS011;50807;52.436;13.346;2023-07-13T00:05:07;1.67;;;1.07;;
15843;SDS011;50807;52.436;13.346;2023-07-13T00:05:39;1.80;;;1.17;;
15843;SDS011;50807;52.436;13.346;2023-07-13T00:06:09;1.63;;;1.00;;
15843;SDS011;50807;52.436;13.346;2023-07-13T00:06:41;1.33;;;1.03;;
15843;SDS011;50807;52.436;13.346;2023-07-13T00:07:14;1.10;;;1.00;;
15843;SDS011;50807;52.436;13.346;2023-07-13T00:07:45;1.57;;;1.00;;
15843;SDS011;50807;52.436;13.346;2023-07-13T00:08:16;1.07;;;0.93;;
15843;SDS011;50807;52.436;13.346;2023-07-13T00:08:48;1.60;;;1.00;;
15843;SDS011;50807;52.436;13.346;2023-07-13T00:09:19;1.50;;;0.90;;
15843;SDS011;50807;52.436;13.346;2023-07-13T00:09:52;1.80;;;1.30;;
15843;SDS011;50807;52.436;13.346;2023-07-13T00:10:22;1.17;;;1.03;;
15843;SDS011;50807;52.436;13.346;2023-07-13T00:10:54;1.40;;;0.90;;
15843;SDS011;50807;52.436;13.346;2023-07-13T00:11:25;1.63;;;1.20;;
15843;SDS011;50807;52.436;13.346;2023-07-13T00:11:56;2.53;;;1.07;;
15843;SDS011;50807;52.436;13.346;2023-07-13T00:12:28;2.60;;;0.97;;
15843;SDS011;50807;52.436;13.346;2023-07-13T00:13:04;3.90;;;1.23;;
15843;SDS011;50807;52.436;13.346;2023-07-13T00:13:35;1.73;;;0.97;;
15843;SDS011;50807;52.436;13.346;2023-07-13T00:14:08;3.03;;;1.20;;
15843;SDS011;50807;52.436;13.346;2023-07-13T00:14:41;1.70;;;1.10;;
15843;SDS011;50807;52.436;13.346;2023-07-13T00:15:13;1.30;;;1.10;;
15843;SDS011;50807;52.436;13.346;2023-07-13T00:15:47;1.27;;;1.10;;
15843;SDS011;50807;52.436;13.346;2023-07-13T00:16:18;1.13;;;1.03;;
15843;SDS011;50807;52.436;13.346;2023-07-13T00:16:48;1.57;;;0.90;;
15843;SDS011;50807;52.436;13.346;2023-07-13T00:17:20;1.97;;;1.07;;
15843;SDS011;50807;52.436;13.346;2023-07-13T00:17:51;1.10;;;1.00;;
15843;SDS011;50807;52.436;13.346;2023-07-13T00:18:23;1.33;;;0.97;;
15843;SDS011;50807;52.436;13.346;2023-07-13T00:18:54;1.53;;;1.00;;
15843;SDS011;50807;52.436;13.346;2023-07-13T00:19:26;1.10;;;0.83;;
15843;SDS011;50807;52.436;13.346;2023-07-13T00:19:57;1.10;;;1.00;;
15843;SDS011;50807;52.436;13.346;2023-07-13T00:20:28;2.07;;;1.10;;
15843;SDS011;50807;52.436;13.346;2023-07-13T00:20:59;2.20;;;1.10;;
15843;SDS011;50807;52.436;13.346;2023-07-13T00:21:34;1.63;;;1.10;;
15843;SDS011;50807;52.436;13.346;2023-07-13T00:22:05;1.40;;;1.10;;
15843;SDS011;50807;52.436;13.346;2023-07-13T00:22:36;1.37;;;1.13;;
15843;SDS011;50807;52.436;13.346;2023-07-13T00:23:08;1.80;;;1.10;;
15843;SDS011;50807;52.436;13.346;2023-07-13T00:23:39;2.00;;;1.47;;
15843;SDS011;50807;52.436;13.346;2023-07-13T00:24:13;1.03;;;0.90;;
15843;SDS011;50807;52.436;13.346;2023-07-13T00:24:48;0.93;;;0.90;;
15843;SDS011;50807;52.436;13.346;2023-07-13T00:25:19;1.90;;;0.90;;
15843;SDS011;50807;52.436;13.346;2023-07-13T00:25:50;1.73;;;1.20;;
15843;SDS011;50807;52.436;13.346;2023-07-13T00:26:21;1.27;;;0.83;;
15843;SDS011;50807;52.436;13.346;2023-07-13T00:26:53;1.40;;;1.00;;
15843;SDS011;50807;52.436;13.346;2023-07-13T00:27:24;1.10;;;1.00;;
15843;SDS011;50807;52.436;13.346;2023-07-13T00:27:56;1.57;;;1.00;;
15843;SDS011;50807;52.436;13.346;2023-07-13T00:28:29;1.90;;;1.10;;
15843;SDS011;50807;52.436;13.346;2023-07-13T00:29:00;2.83;;;1.10;;
15843;SDS011;50807;52.436;13.346;2023-07-13T00:29:31;1.20;;;1.10;;
15843;SDS011;50807;52.436;13.346;2023-07-13T00:30:04;1.30;;;1.10;;
15843;SDS011;50807;52.436;13.346;2023-07-13T00:30:38;1.67;;;0.90;;
15843;SDS011;50807;52.436;13.346;2023-07-13T00:31:09;1.50;;;1.20;;
15843;SDS011;50807;52.436;13.346;2023-07-13T00:31:44;1.73;;;1.10;;
15843;SDS011;50807;52.436;13.346;2023-07-13T00:32:16;2.20;;;1.10;;
15843;SDS011;50807;52.436;13.346;2023-07-13T00:32:46;1.13;;;1.03;;
15843;SDS011;50807;52.436;13.346;2023-07-13T00:33:17;1.90;;;1.17;;
15843;SDS011;50807;52.436;13.346;2023-07-13T00:33:48;1.43;;;1.10;;
15843;SDS011;50807;52.436;13.346;2023-07-13T00:34:20;1.30;;;1.13;;
15843;SDS011;50807;52.436;13.346;2023-07-13T00:34:50;1.50;;;1.17;;
15843;SDS011;50807;52.436;13.346;2023-07-13T00:35:21;1.23;;;1.13;;
15843;SDS011;50807;52.436;13.346;2023-07-13T00:35:53;1.60;;;1.20;;
15843;SDS011;50807;52.436;13.346;2023-07-13T00:36:25;2.03;;;1.10;;
15843;SDS011;50807;52.436;13.346;2023-07-13T00:36:56;1.03;;;0.93;;
15843;SDS011;50807;52.436;13.346;2023-07-13T00:37:27;1.93;;;1.30;;
15843;SDS011;50807;52.436;13.346;2023-07-13T00:37:58;1.60;;;1.07;;
15843;SDS011;50807;52.436;13.346;2023-07-13T00:38:29;2.07;;;1.03;;
15843;SDS011;50807;52.436;13.346;2023-07-13T00:39:01;1.80;;;1.00;;
15843;SDS011;50807;52.436;13.346;2023-07-13T00:39:34;0.93;;;0.80;;
15843;SDS011;50807;52.436;13.346;2023-07-13T00:40:07;2.30;;;0.90;;
15843;SDS011;50807;52.436;13.346;2023-07-13T00:40:40;1.90;;;1.23;;
15843;SDS011;50807;52.436;13.346;2023-07-13T00:41:11;1.13;;;0.80;;
15843;SDS011;50807;52.436;13.346;2023-07-13T00:41:42;1.07;;;0.93;;
15843;SDS011;50807;52.436;13.346;2023-07-13T00:42:14;3.13;;;1.00;;
15843;SDS011;50807;52.436;13.346;2023-07-13T00:42:45;1.30;;;1.10;;
15843;SDS011;50807;52.436;13.346;2023-07-13T00:43:17;1.00;;;0.90;;
15843;SDS011;50807;52.436;13.346;2023-07-13T00:43:52;1.87;;;1.33;;
15843;SDS011;50807;52.436;13.346;2023-07-13T00:44:23;2.13;;;1.30;;
15843;SDS011;50807;52.436;13.346;2023-07-13T00:45:01;1.00;;;0.90;;
15843;SDS011;50807;52.436;13.346;2023-07-13T00:47:02;1.90;;;1.13;;
15843;SDS011;50807;52.436;13.346;2023-07-13T00:47:33;1.70;;;1.10;;
15843;SDS011;50807;52.436;13.346;2023-07-13T00:48:04;1.30;;;1.00;;
15843;SDS011;50807;52.436;13.346;2023-07-13T00:48:35;2.47;;;0.80;;
15843;SDS011;50807;52.436;13.346;2023-07-13T00:49:09;1.23;;;1.00;;
15843;SDS011;50807;52.436;13.346;2023-07-13T00:49:45;1.43;;;0.90;;
15843;SDS011;50807;52.436;13.346;2023-07-13T00:50:16;1.27;;;1.03;;
15843;SDS011;50807;52.436;13.346;2023-07-13T00:50:52;1.10;;;1.00;;
15843;SDS011;50807;52.436;13.346;2023-07-13T00:51:28;1.47;;;1.00;;
15843;SDS011;50807;52.436;13.346;2023-07-13T00:52:05;1.60;;;1.20;;
15843;SDS011;50807;52.436;13.346;2023-07-13T00:52:40;1.13;;;1.03;;
15843;SDS011;50807;52.436;13.346;2023-07-13T00:53:14;1.47;;;1.17;;
15843;SDS011;50807;52.436;13.346;2023-07-13T00:53:46;1.47;;;1.10;;
15843;SDS011;50807;52.436;13.346;2023-07-13T00:54:22;1.83;;;1.20;;
15843;SDS011;50807;52.436;13.346;2023-07-13T00:54:59;1.40;;;1.20;;
15843;SDS011;50807;52.436;13.346;2023-07-13T00:55:29;2.10;;;1.03;;
15843;SDS011;50807;52.436;13.346;2023-07-13T00:56:00;1.20;;;1.10;;
15843;SDS011;50807;52.436;13.346;2023-07-13T00:56:33;1.90;;;1.10;;
15843;SDS011;50807;52.436;13.346;2023-07-13T00:57:07;1.10;;;0.97;;
15843;SDS011;50807;52.436;13.346;2023-07-13T00:57:42;1.67;;;1.10;;
15843;SDS011;50807;52.436;13.346;2023-07-13T00:58:14;1.10;;;1.00;;
15843;SDS011;50807;52.436;13.346;2023-07-13T00:58:46;1.20;;;0.90;;
15843;SDS011;50807;52.436;13.346;2023-07-13T00:59:18;1.60;;;1.00;;
15843;SDS011;50807;52.436;13.346;2023-07-13T00:59:52;1.60;;;1.20;;
15843;SDS011;50807;52.436;13.346;2023-07-13T01:00:28;2.03;;;1.30;;
15843;SDS011;50807;52.436;13.346;2023-07-13T01:01:00;1.87;;;1.40;;
15843;SDS011;50807;52.436;13.346;2023-07-13T01:01:33;2.60;;;1.50;;
15843;SDS011;50807;52.436;13.346;2023-07-13T01:02:04;2.57;;;1.23;;
15843;SDS011;50807;52.436;13.346;2023-07-13T01:02:36;1.50;;;1.17;;
15843;SDS011;50807;52.436;13.346;2023-07-13T01:03:11;2.13;;;1.20;;
15843;SDS011;50807;52.436;13.346;2023-07-13T01:03:43;1.77;;;1.10;;
15843;SDS011;50807;52.436;13.346;2023-07-13T01:04:13;1.50;;;1.20;;
15843;SDS011;50807;52.436;13.346;2023-07-13T01:04:45;1.67;;;1.23;;
15843;SDS011;50807;52.436;13.346;2023-07-13T01:05:17;1.37;;;1.10;;
15843;SDS011;50807;52.436;13.346;2023-07-13T01:05:51;3.93;;;1.27;;
15843;SDS011;50807;52.436;13.346;2023-07-13T01:06:23;1.50;;;1.30;;
15843;SDS011;50807;52.436;13.346;2023-07-13T01:06:55;1.23;;;0.97;;
15843;SDS011;50807;52.436;13.346;2023-07-13T01:07:28;2.10;;;1.30;;
15843;SDS011;50807;52.436;13.346;2023-07-13T01:07:59;1.63;;;1.20;;
15843;SDS011;50807;52.436;13.346;2023-07-13T01:08:31;1.60;;;1.00;;
15843;SDS011;50807;52.436;13.346;2023-07-13T01:09:03;1.60;;;1.50;;
15843;SDS011;50807;52.436;13.346;2023-07-13T01:09:37;1.43;;;1.03;;
15843;SDS011;50807;52.436;13.346;2023-07-13T01:10:08;1.33;;;1.00;;
15843;SDS011;50807;52.436;13.346;2023-07-13T01:10:41;1.00;;;0.90;;
15843;SDS011;50807;52.436;13.346;2023-07-13T01:11:21;2.40;;;1.17;;
15843;SDS011;50807;52.436;13.346;2023-07-13T01:11:52;1.20;;;1.10;;
15843;SDS011;50807;52.436;13.346;2023-07-13T01:12:24;1.63;;;1.30;;
15843;SDS011;50807;52.436;13.346;2023-07-13T01:12:54;1.40;;;1.30;;
15843;SDS011;50807;52.436;13.346;2023-07-13T01:13:25;1.80;;;1.20;;
15843;SDS011;50807;52.436;13.346;2023-07-13T01:13:56;1.90;;;1.40;;
15843;SDS011;50807;52.436;13.346;2023-07-13T01:14:28;1.60;;;1.20;;
15843;SDS011;50807;52.436;13.346;2023-07-13T01:14:59;2.30;;;1.30;;
15843;SDS011;50807;52.436;13.346;2023-07-13T01:15:35;1.43;;;1.17;;
15843;SDS011;50807;52.436;13.346;2023-07-13T01:16:11;1.40;;;1.30;;
15843;SDS011;50807;52.436;13.346;2023-07-13T01:16:54;2.80;;;1.20;;
15843;SDS011;50807;52.436;13.346;2023-07-13T01:17:30;1.33;;;1.20;;
15843;SDS011;50807;52.436;13.346;2023-07-13T01:18:04;1.27;;;1.17;;
15843;SDS011;50807;52.436;13.346;2023-07-13T01:18:37;1.63;;;1.30;;
15843;SDS011;50807;52.436;13.346;2023-07-13T01:19:11;1.57;;;1.00;;
15843;SDS011;50807;52.436;13.346;2023-07-13T01:19:55;1.30;;;1.00;;
15843;SDS011;50807;52.436;13.346;2023-07-13T01:20:26;1.10;;;1.00;;
15843;SDS011;50807;52.436;13.346;2023-07-13T01:20:59;1.30;;;1.10;;
15843;SDS011;50807;52.436;13.346;2023-07-13T01:21:33;1.23;;;1.13;;
15843;SDS011;50807;52.436;13.346;2023-07-13T01:22:04;2.80;;;1.13;;
15843;SDS011;50807;52.436;13.346;2023-07-13T01:22:38;2.47;;;1.30;;
15843;SDS011;50807;52.436;13.346;2023-07-13T01:23:10;1.33;;;1.23;;
15843;SDS011;50807;52.436;13.346;2023-07-13T01:23:43;1.40;;;1.30;;
15843;SDS011;50807;52.436;13.346;2023-07-13T01:24:14;1.50;;;1.20;;
15843;SDS011;50807;52.436;13.346;2023-07-13T01:24:46;1.60;;;1.10;;
15843;SDS011;50807;52.436;13.346;2023-07-13T01:25:18;2.47;;;1.23;;
15843;SDS011;50807;52.436;13.346;2023-07-13T01:25:51;2.00;;;1.40;;
15843;SDS011;50807;52.436;13.346;2023-07-13T01:26:25;3.37;;;1.43;;
15843;SDS011;50807;52.436;13.346;2023-07-13T01:26:57;1.67;;;1.30;;
15843;SDS011;50807;52.436;13.346;2023-07-13T01:27:27;0.93;;;0.90;;
15843;SDS011;50807;52.436;13.346;2023-07-13T01:27:59;1.20;;;1.10;;
15843;SDS011;50807;52.436;13.346;2023-07-13T01:28:30;1.47;;;1.20;;
15843;SDS011;50807;52.436;13.346;2023-07-13T01:29:00;2.13;;;1.47;;
15843;SDS011;50807;52.436;13.346;2023-07-13T01:29:32;1.77;;;1.20;;
15843;SDS011;50807;52.436;13.346;2023-07-13T01:30:12;2.80;;;1.60;;
15843;SDS011;50807;52.436;13.346;2023-07-13T01:30:43;1.80;;;1.30;;
15843;SDS011;50807;52.436;13.346;2023-07-13T01:31:15;1.10;;;1.00;;
15843;SDS011;50807;52.436;13.346;2023-07-13T01:31:46;2.10;;;1.20;;
15843;SDS011;50807;52.436;13.346;2023-07-13T01:32:19;1.27;;;1.17;;
15843;SDS011;50807;52.436;13.346;2023-07-13T01:32:54;1.60;;;1.03;;
15843;SDS011;50807;52.436;13.346;2023-07-13T01:33:25;1.57;;;1.47;;
15843;SDS011;50807;52.436;13.346;2023-07-13T01:33:56;2.07;;;1.40;;
15843;SDS011;50807;52.436;13.346;2023-07-13T01:34:28;1.53;;;1.20;;
15843;SDS011;50807;52.436;13.346;2023-07-13T01:34:59;1.73;;;1.23;;
15843;SDS011;50807;52.436;13.346;2023-07-13T01:35:29;1.67;;;1.30;;
15843;SDS011;50807;52.436;13.346;2023-07-13T01:36:02;2.10;;;1.20;;
15843;SDS011;50807;52.436;13.346;2023-07-13T01:36:33;1.30;;;1.20;;
15843;SDS011;50807;52.436;13.346;2023-07-13T01:37:05;1.63;;;1.40;;
15843;SDS011;50807;52.436;13.346;2023-07-13T01:37:35;1.27;;;1.17;;
15843;SDS011;50807;52.436;13.346;2023-07-13T01:38:06;2.13;;;1.40;;
15843;SDS011;50807;52.436;13.346;2023-07-13T01:38:38;1.70;;;1.20;;
15843;SDS011;50807;52.436;13.346;2023-07-13T01:39:10;2.00;;;1.40;;
15843;SDS011;50807;52.436;13.346;2023-07-13T01:39:41;1.77;;;1.50;;
15843;SDS011;50807;52.436;13.346;2023-07-13T01:40:12;1.50;;;1.20;;
15843;SDS011;50807;52.436;13.346;2023-07-13T01:40:43;1.40;;;0.90;;
15843;SDS011;50807;52.436;13.346;2023-07-13T01:41:15;1.30;;;1.00;;
15843;SDS011;50807;52.436;13.346;2023-07-13T01:41:45;3.23;;;1.50;;
15843;SDS011;50807;52.436;13.346;2023-07-13T01:42:16;2.90;;;1.47;;
15843;SDS011;50807;52.436;13.346;2023-07-13T01:42:47;1.70;;;1.13;;
15843;SDS011;50807;52.436;13.346;2023-07-13T01:43:19;1.90;;;1.40;;
15843;SDS011;50807;52.436;13.346;2023-07-13T01:43:50;1.63;;;1.17;;
15843;SDS011;50807;52.436;13.346;2023-07-13T01:44:20;1.23;;;1.13;;
15843;SDS011;50807;52.436;13.346;2023-07-13T01:44:51;2.20;;;1.47;;
15843;SDS011;50807;52.436;13.346;2023-07-13T01:45:23;2.03;;;1.10;;
15843;SDS011;50807;52.436;13.346;2023-07-13T01:45:54;1.67;;;1.27;;
15843;SDS011;50807;52.436;13.346;2023-07-13T01:46:25;1.40;;;1.07;;
15843;SDS011;50807;52.436;13.346;2023-07-13T01:46:57;1.60;;;1.20;;
15843;SDS011;50807;52.436;13.346;2023-07-13T01:47:28;1.03;;;0.93;;
15843;SDS011;50807;52.436;13.346;2023-07-13T01:48:00;1.30;;;1.20;;
15843;SDS011;50807;52.436;13.346;2023-07-13T01:48:31;1.40;;;1.27;;
15843;SDS011;50807;52.436;13.346;2023-07-13T01:49:03;1.97;;;1.27;;
15843;SDS011;50807;52.436;13.346;2023-07-13T01:49:34;1.77;;;1.30;;
15843;SDS011;50807;52.436;13.346;2023-07-13T01:50:05;0.77;;;0.77;;
15843;SDS011;50807;52.436;13.346;2023-07-13T01:50:36;2.90;;;1.20;;
15843;SDS011;50807;52.436;13.346;2023-07-13T01:51:09;3.00;;;1.30;;
15843;SDS011;50807;52.436;13.346;2023-07-13T01:51:40;1.50;;;1.40;;
15843;SDS011;50807;52.436;13.346;2023-07-13T01:52:11;1.80;;;1.10;;
15843;SDS011;50807;52.436;13.346;2023-07-13T01:52:42;2.63;;;1.17;;
15843;SDS011;50807;52.436;13.346;2023-07-13T01:53:14;1.23;;;1.10;;
15843;SDS011;50807;52.436;13.346;2023-07-13T01:53:44;1.27;;;1.13;;
15843;SDS011;50807;52.436;13.346;2023-07-13T01:54:15;1.63;;;1.30;;
15843;SDS011;50807;52.436;13.346;2023-07-13T01:54:47;1.40;;;1.13;;
15843;SDS011;50807;52.436;13.346;2023-07-13T01:55:18;1.77;;;1.50;;
15843;SDS011;50807;52.436;13.346;2023-07-13T01:55:50;2.47;;;1.50;;
15843;SDS011;50807;52.436;13.346;2023-07-13T01:56:21;1.47;;;1.30;;
15843;SDS011;50807;52.436;13.346;2023-07-13T01:56:52;3.53;;;1.30;;
15843;SDS011;50807;52.436;13.346;2023-07-13T01:57:23;2.90;;;1.07;;
15843;SDS011;50807;52.436;13.346;2023-07-13T01:57:54;1.73;;;1.30;;
15843;SDS011;50807;52.436;13.346;2023-07-13T01:58:25;1.93;;;1.33;;
15843;SDS011;50807;52.436;13.346;2023-07-13T01:58:57;1.40;;;1.13;;
15843;SDS011;50807;52.436;13.346;2023-07-13T01:59:28;1.43;;;1.27;;
15843;SDS011;50807;52.436;13.346;2023-07-13T01:59:58;1.83;;;1.30;;
15843;SDS011;50807;52.436;13.346;2023-07-13T02:00:31;1.67;;;1.17;;
15843;SDS011;50807;52.436;13.346;2023-07-13T02:01:02;1.00;;;1.00;;
15843;SDS011;50807;52.436;13.346;2023-07-13T02:01:34;1.40;;;1.30;;
15843;SDS011;50807;52.436;13.346;2023-07-13T02:02:05;1.60;;;1.40;;
15843;SDS011;50807;52.436;13.346;2023-07-13T02:02:36;1.40;;;1.10;;
15843;SDS011;50807;52.436;13.346;2023-07-13T02:03:07;2.50;;;1.50;;
15843;SDS011;50807;52.436;13.346;2023-07-13T02:03:39;1.33;;;1.23;;
15843;SDS011;50807;52.436;13.346;2023-07-13T02:04:09;1.40;;;1.30;;
15843;SDS011;50807;52.436;13.346;2023-07-13T02:04:40;1.10;;;1.10;;
15843;SDS011;50807;52.436;13.346;2023-07-13T02:05:11;1.70;;;1.07;;
15843;SDS011;50807;52.436;13.346;2023-07-13T02:05:44;1.50;;;1.03;;
15843;SDS011;50807;52.436;13.346;2023-07-13T02:06:16;1.73;;;1.37;;
15843;SDS011;50807;52.436;13.346;2023-07-13T02:06:47;2.07;;;1.40;;
15843;SDS011;50807;52.436;13.346;2023-07-13T02:07:18;3.63;;;1.20;;
15843;SDS011;50807;52.436;13.346;2023-07-13T02:07:49;2.23;;;1.47;;
15843;SDS011;50807;52.436;13.346;2023-07-13T02:08:20;1.20;;;1.10;;
15843;SDS011;50807;52.436;13.346;2023-07-13T02:08:51;1.60;;;1.30;;
15843;SDS011;50807;52.436;13.346;2023-07-13T02:09:22;1.63;;;1.53;;
15843;SDS011;50807;52.436;13.346;2023-07-13T02:09:53;1.83;;;1.23;;
15843;SDS011;50807;52.436;13.346;2023-07-13T02:10:24;1.30;;;1.20;;
15843;SDS011;50807;52.436;13.346;2023-07-13T02:10:55;1.10;;;1.00;;
15843;SDS011;50807;52.436;13.346;2023-07-13T02:11:26;1.93;;;1.37;;
15843;SDS011;50807;52.436;13.346;2023-07-13T02:12:02;1.40;;;1.30;;
15843;SDS011;50807;52.436;13.346;2023-07-13T02:12:34;2.03;;;1.50;;
15843;SDS011;50807;52.436;13.346;2023-07-13T02:13:06;1.63;;;1.30;;
15843;SDS011;50807;52.436;13.346;2023-07-13T02:13:38;1.77;;;1.50;;
15843;SDS011;50807;52.436;13.346;2023-07-13T02:14:09;1.80;;;1.40;;
15843;SDS011;50807;52.436;13.346;2023-07-13T02:14:40;2.13;;;1.30;;
15843;SDS011;50807;52.436;13.346;2023-07-13T02:15:11;2.60;;;1.70;;
15843;SDS011;50807;52.436;13.346;2023-07-13T02:15:42;2.10;;;1.40;;
15843;SDS011;50807;52.436;13.346;2023-07-13T02:16:13;2.57;;;1.63;;
15843;SDS011;50807;52.436;13.346;2023-07-13T02:16:44;3.93;;;1.50;;
15843;SDS011;50807;52.436;13.346;2023-07-13T02:17:14;1.40;;;1.30;;
15843;SDS011;50807;52.436;13.346;2023-07-13T02:17:46;1.37;;;1.13;;
15843;SDS011;50807;52.436;13.346;2023-07-13T02:18:17;1.30;;;1.20;;
15843;SDS011;50807;52.436;13.346;2023-07-13T02:18:48;1.40;;;1.00;;
15843;SDS011;50807;52.436;13.346;2023-07-13T02:19:22;1.40;;;1.30;;
15843;SDS011;50807;52.436;13.346;2023-07-13T02:19:53;1.73;;;1.40;;
15843;SDS011;50807;52.436;13.346;2023-07-13T02:20:24;1.73;;;1.30;;
15843;SDS011;50807;52.436;13.346;2023-07-13T02:20:56;2.57;;;1.53;;
15843;SDS011;50807;52.436;13.346;2023-07-13T02:21:28;2.43;;;1.70;;
15843;SDS011;50807;52.436;13.346;2023-07-13T02:22:00;1.40;;;1.17;;
15843;SDS011;50807;52.436;13.346;2023-07-13T02:22:30;1.30;;;1.20;;
15843;SDS011;50807;52.436;13.346;2023-07-13T02:23:02;1.50;;;1.40;;
15843;SDS011;50807;52.436;13.346;2023-07-13T02:23:32;2.00;;;1.30;;
15843;SDS011;50807;52.436;13.346;2023-07-13T02:24:04;1.53;;;1.43;;
15843;SDS011;50807;52.436;13.346;2023-07-13T02:24:35;1.43;;;1.33;;
15843;SDS011;50807;52.436;13.346;2023-07-13T02:25:08;1.73;;;1.43;;
15843;SDS011;50807;52.436;13.346;2023-07-13T02:25:39;1.83;;;1.30;;
15843;SDS011;50807;52.436;13.346;2023-07-13T02:26:11;1.73;;;1.30;;
15843;SDS011;50807;52.436;13.346;2023-07-13T02:26:41;1.10;;;1.00;;
15843;SDS011;50807;52.436;13.346;2023-07-13T02:27:12;1.10;;;1.00;;
15843;SDS011;50807;52.436;13.346;2023-07-13T02:27:43;1.57;;;1.20;;
15843;SDS011;50807;52.436;13.346;2023-07-13T02:28:14;2.30;;;1.53;;
15843;SDS011;50807;52.436;13.346;2023-07-13T02:28:45;2.67;;;1.50;;
15843;SDS011;50807;52.436;13.346;2023-07-13T02:29:16;1.97;;;1.57;;
15843;SDS011;50807;52.436;13.346;2023-07-13T02:29:47;1.47;;;1.37;;
15843;SDS011;50807;52.436;13.346;2023-07-13T02:30:21;1.43;;;1.30;;
15843;SDS011;50807;52.436;13.346;2023-07-13T02:30:54;1.63;;;1.53;;
15843;SDS011;50807;52.436;13.346;2023-07-13T02:31:25;1.50;;;1.40;;
15843;SDS011;50807;52.436;13.346;2023-07-13T02:31:57;1.57;;;1.20;;
15843;SDS011;50807;52.436;13.346;2023-07-13T02:32:28;2.07;;;1.63;;
15843;SDS011;50807;52.436;13.346;2023-07-13T02:32:58;1.53;;;1.43;;
15843;SDS011;50807;52.436;13.346;2023-07-13T02:33:29;2.97;;;1.30;;
15843;SDS011;50807;52.436;13.346;2023-07-13T02:34:01;2.40;;;1.70;;
15843;SDS011;50807;52.436;13.346;2023-07-13T02:34:32;2.43;;;1.67;;
15843;SDS011;50807;52.436;13.346;2023-07-13T02:35:04;1.60;;;1.50;;
15843;SDS011;50807;52.436;13.346;2023-07-13T02:35:36;2.10;;;1.50;;
15843;SDS011;50807;52.436;13.346;2023-07-13T02:36:07;1.83;;;1.30;;
15843;SDS011;50807;52.436;13.346;2023-07-13T02:36:39;2.00;;;1.50;;
15843;SDS011;50807;52.436;13.346;2023-07-13T02:37:10;1.47;;;1.27;;
15843;SDS011;50807;52.436;13.346;2023-07-13T02:37:42;1.93;;;1.43;;
15843;SDS011;50807;52.436;13.346;2023-07-13T02:38:13;2.07;;;1.47;;
15843;SDS011;50807;52.436;13.346;2023-07-13T02:38:44;1.50;;;1.40;;
15843;SDS011;50807;52.436;13.346;2023-07-13T02:39:15;2.40;;;1.50;;
15843;SDS011;50807;52.436;13.346;2023-07-13T02:39:47;2.63;;;1.60;;
15843;SDS011;50807;52.436;13.346;2023-07-13T02:40:18;1.37;;;1.20;;
15843;SDS011;50807;52.436;13.346;2023-07-13T02:40:49;1.87;;;1.50;;
15843;SDS011;50807;52.436;13.346;2023-07-13T02:41:20;1.50;;;1.40;;
15843;SDS011;50807;52.436;13.346;2023-07-13T02:41:53;1.93;;;1.43;;
15843;SDS011;50807;52.436;13.346;2023-07-13T02:42:23;1.93;;;1.57;;
15843;SDS011;50807;52.436;13.346;2023-07-13T02:42:54;2.03;;;1.80;;
15843;SDS011;50807;52.436;13.346;2023-07-13T02:43:26;1.83;;;1.60;;
15843;SDS011;50807;52.436;13.346;2023-07-13T02:43:57;1.90;;;1.50;;
15843;SDS011;50807;52.436;13.346;2023-07-13T02:44:33;1.60;;;1.50;;
15843;SDS011;50807;52.436;13.346;2023-07-13T02:45:04;1.90;;;1.30;;
15843;SDS011;50807;52.436;13.346;2023-07-13T02:45:37;1.30;;;1.20;;
15843;SDS011;50807;52.436;13.346;2023-07-13T02:46:09;1.60;;;1.50;;
15843;SDS011;50807;52.436;13.346;2023-07-13T02:46:40;2.10;;;1.90;;
15843;SDS011;50807;52.436;13.346;2023-07-13T02:47:11;1.57;;;1.40;;
15843;SDS011;50807;52.436;13.346;2023-07-13T02:47:43;1.57;;;1.40;;
15843;SDS011;50807;52.436;13.346;2023-07-13T02:48:14;2.10;;;1.50;;
15843;SDS011;50807;52.436;13.346;2023-07-13T02:48:45;2.33;;;1.70;;
15843;SDS011;50807;52.436;13.346;2023-07-13T02:49:15;1.73;;;1.50;;
15843;SDS011;50807;52.436;13.346;2023-07-13T02:49:47;2.33;;;1.60;;
15843;SDS011;50807;52.436;13.346;2023-07-13T02:50:18;1.57;;;1.47;;
15843;SDS011;50807;52.436;13.346;2023-07-13T02:50:49;1.90;;;1.50;;
15843;SDS011;50807;52.436;13.346;2023-07-13T02:51:20;1.67;;;1.43;;
15843;SDS011;50807;52.436;13.346;2023-07-13T02:51:52;1.53;;;1.43;;
15843;SDS011;50807;52.436;13.346;2023-07-13T02:52:23;1.70;;;1.60;;
15843;SDS011;50807;52.436;13.346;2023-07-13T02:52:54;1.70;;;1.60;;
15843;SDS011;50807;52.436;13.346;2023-07-13T02:53:26;1.50;;;1.40;;
15843;SDS011;50807;52.436;13.346;2023-07-13T02:53:57;1.63;;;1.53;;
15843;SDS011;50807;52.436;13.346;2023-07-13T02:54:28;1.90;;;1.70;;
15843;SDS011;50807;52.436;13.346;2023-07-13T02:54:59;2.47;;;1.77;;
15843;SDS011;50807;52.436;13.346;2023-07-13T02:55:30;1.63;;;1.53;;
15843;SDS011;50807;52.436;13.346;2023-07-13T02:56:01;1.70;;;1.60;;
15843;SDS011;50807;52.436;13.346;2023-07-13T02:56:32;1.60;;;1.50;;
15843;SDS011;50807;52.436;13.346;2023-07-13T02:57:03;5.37;;;2.10;;
15843;SDS011;50807;52.436;13.346;2023-07-13T02:57:35;1.57;;;1.47;;
15843;SDS011;50807;52.436;13.346;2023-07-13T02:58:06;3.13;;;1.93;;
15843;SDS011;50807;52.436;13.346;2023-07-13T02:58:37;2.57;;;1.60;;
15843;SDS011;50807;52.436;13.346;2023-07-13T02:59:09;2.50;;;1.77;;
15843;SDS011;50807;52.436;13.346;2023-07-13T02:59:40;1.93;;;1.73;;
15843;SDS011;50807;52.436;13.346;2023-07-13T03:00:12;2.17;;;1.63;;
15843;SDS011;50807;52.436;13.346;2023-07-13T03:00:43;1.97;;;1.47;;
15843;SDS011;50807;52.436;13.346;2023-07-13T03:01:16;1.63;;;1.47;;
15843;SDS011;50807;52.436;13.346;2023-07-13T03:01:48;2.60;;;1.43;;
15843;SDS011;50807;52.436;13.346;2023-07-13T03:02:19;3.13;;;1.60;;
15843;SDS011;50807;52.436;13.346;2023-07-13T03:02:50;2.10;;;1.90;;
15843;SDS011;50807;52.436;13.346;2023-07-13T03:03:22;1.70;;;1.53;;
15843;SDS011;50807;52.436;13.346;2023-07-13T03:03:53;2.13;;;1.90;;
15843;SDS011;50807;52.436;13.346;2023-07-13T03:04:24;1.97;;;1.77;;
15843;SDS011;50807;52.436;13.346;2023-07-13T03:04:55;1.67;;;1.43;;
15843;SDS011;50807;52.436;13.346;2023-07-13T03:05:27;2.23;;;1.73;;
15843;SDS011;50807;52.436;13.346;2023-07-13T03:05:58;2.40;;;1.87;;
15843;SDS011;50807;52.436;13.346;2023-07-13T03:06:32;2.27;;;1.57;;
15843;SDS011;50807;52.436;13.346;2023-07-13T03:07:05;2.73;;;1.70;;
15843;SDS011;50807;52.436;13.346;2023-07-13T03:07:36;2.83;;;1.73;;
15843;SDS011;50807;52.436;13.346;2023-07-13T03:08:07;1.50;;;1.40;;
15843;SDS011;50807;52.436;13.346;2023-07-13T03:08:38;1.70;;;1.60;;
15843;SDS011;50807;52.436;13.346;2023-07-13T03:09:09;7.43;;;1.80;;
15843;SDS011;50807;52.436;13.346;2023-07-13T03:09:42;2.10;;;1.70;;
15843;SDS011;50807;52.436;13.346;2023-07-13T03:10:13;2.03;;;1.80;;
15843;SDS011;50807;52.436;13.346;2023-07-13T03:10:44;1.50;;;1.40;;